createdAt,value
2023-02-08T00:02:47.466Z,37.30
2023-02-08T00:05:41.768Z,38.90
2023-02-08T00:08:37.253Z,39.50
2023-02-08T00:11:31.668Z,38.10
2023-02-08T00:14:26.065Z,36.50
2023-02-08T00:17:20.464Z,36.30
2023-02-08T00:20:15.064Z,37.40
2023-02-08T00:23:09.850Z,37.30
2023-02-08T00:26:04.358Z,37.20
2023-02-08T00:28:58.584Z,37.30
2023-02-08T00:31:53.279Z,36.10
2023-02-08T00:34:47.537Z,35.50
2023-02-08T00:37:42.603Z,37.50
2023-02-08T00:40:36.968Z,38.30
2023-02-08T00:43:35.452Z,37.80
2023-02-08T00:46:29.939Z,36.60
2023-02-08T00:49:29.468Z,36.80
2023-02-08T00:52:23.791Z,36.80
2023-02-08T00:55:18.288Z,36.60
2023-02-08T00:58:13.785Z,35.30
2023-02-08T01:01:09.311Z,35.60
2023-02-08T01:04:03.673Z,34.10
2023-02-08T01:06:58.007Z,34.40
2023-02-08T01:09:52.280Z,34.70
2023-02-08T01:12:46.640Z,32.90
2023-02-08T01:15:40.930Z,33.20
2023-02-08T01:18:35.267Z,32.80
2023-02-08T01:21:33.012Z,32.30
2023-02-08T01:24:27.280Z,33.40
2023-02-08T01:27:26.536Z,34.00
2023-02-08T01:30:20.908Z,33.90
2023-02-08T01:33:15.345Z,33.30
2023-02-08T01:36:10.578Z,33.30
2023-02-08T01:39:07.160Z,33.10
2023-02-08T01:42:01.462Z,31.90
2023-02-08T01:45:17.330Z,32.80
2023-02-08T01:48:18.685Z,33.20
2023-02-08T01:51:22.039Z,35.90
2023-02-08T01:54:20.101Z,37.70
2023-02-08T01:57:14.539Z,37.10
2023-02-08T02:00:23.537Z,36.60
2023-02-08T02:03:19.308Z,37.40
2023-02-08T02:06:18.406Z,38.90
2023-02-08T02:09:18.791Z,38.60
2023-02-08T02:12:14.696Z,38.20
2023-02-08T02:15:10.078Z,37.30
2023-02-08T02:18:07.277Z,36.40
2023-02-08T02:21:29.248Z,37.80
2023-02-08T02:24:43.478Z,38.50
2023-02-08T02:27:56.101Z,38.70
2023-02-08T02:31:20.891Z,37.30
2023-02-08T02:34:39.971Z,37.10
2023-02-08T02:37:50.830Z,35.00
2023-02-08T02:41:40.586Z,35.20
2023-02-08T02:44:44.553Z,36.30
2023-02-08T02:47:42.943Z,36.90
2023-02-08T02:50:47.593Z,36.20
2023-02-08T02:54:00.214Z,35.40
2023-02-08T02:57:02.844Z,33.90
2023-02-08T02:59:57.264Z,33.50
2023-02-08T03:02:51.609Z,32.60
2023-02-08T03:05:45.948Z,31.50
2023-02-08T03:08:58.662Z,33.10
2023-02-08T03:12:21.644Z,33.50
2023-02-08T03:15:26.012Z,31.70
2023-02-08T03:18:38.121Z,33.40
2023-02-08T03:21:55.751Z,33.50
2023-02-08T03:25:18.270Z,34.50
2023-02-08T03:28:28.022Z,33.70
2023-02-08T03:31:48.361Z,34.10
2023-02-08T03:35:06.140Z,34.90
2023-02-08T03:38:03.401Z,35.40
2023-02-08T03:41:01.603Z,35.30
2023-02-08T03:44:19.595Z,35.00
2023-02-08T03:47:31.289Z,34.80
2023-02-08T03:50:26.814Z,35.90
2023-02-08T03:53:24.122Z,36.20
2023-02-08T03:56:28.592Z,35.00
2023-02-08T03:59:26.873Z,35.50
2023-02-08T04:02:23.800Z,34.00
2023-02-08T04:05:18.254Z,34.60
2023-02-08T04:08:12.612Z,35.30
2023-02-08T04:11:07.011Z,34.30
2023-02-08T04:14:01.390Z,33.40
2023-02-08T04:16:55.789Z,35.00
2023-02-08T04:19:50.055Z,32.80
2023-02-08T04:22:47.270Z,32.60
2023-02-08T04:25:41.593Z,33.00
2023-02-08T04:28:36.099Z,33.10
2023-02-08T04:31:30.510Z,32.70
2023-02-08T04:34:24.981Z,33.20
2023-02-08T04:37:19.260Z,33.20
2023-02-08T04:40:13.899Z,33.00
2023-02-08T04:43:08.239Z,33.60
2023-02-08T04:46:02.569Z,34.60
2023-02-08T04:48:58.770Z,34.90
2023-02-08T04:51:53.434Z,34.80
2023-02-08T04:54:47.842Z,35.40
2023-02-08T04:57:42.254Z,35.80
2023-02-08T05:00:36.459Z,36.40
2023-02-08T05:03:30.744Z,37.00
2023-02-08T05:06:24.975Z,37.70
2023-02-08T05:09:19.366Z,37.50
2023-02-08T05:12:13.597Z,38.00
2023-02-08T05:15:08.182Z,38.70
2023-02-08T05:18:02.501Z,38.60
2023-02-08T05:21:01.544Z,39.20
2023-02-08T05:23:56.191Z,39.00
2023-02-08T05:26:50.558Z,39.10
2023-02-08T05:29:44.789Z,39.20
2023-02-08T05:32:39.372Z,39.90
2023-02-08T05:35:37.942Z,39.70
2023-02-08T05:38:32.407Z,40.00
2023-02-08T05:41:26.776Z,40.70
2023-02-08T05:44:21.141Z,39.40
2023-02-08T05:47:17.466Z,38.20
2023-02-08T05:50:12.376Z,37.30
2023-02-08T05:53:06.651Z,36.70
2023-02-08T05:56:01.351Z,36.80
2023-02-08T05:58:55.967Z,35.70
2023-02-08T06:01:50.788Z,35.40
2023-02-08T06:04:45.113Z,34.70
2023-02-08T06:07:39.558Z,34.70
2023-02-08T06:10:33.865Z,34.80
2023-02-08T06:13:30.947Z,34.30
2023-02-08T06:16:25.330Z,33.80
2023-02-08T06:19:19.958Z,34.20
2023-02-08T06:22:14.296Z,34.10
2023-02-08T06:25:08.972Z,33.70
2023-02-08T06:28:04.379Z,34.00
2023-02-08T06:30:58.709Z,32.80
2023-02-08T06:33:52.910Z,31.70
2023-02-08T06:36:47.159Z,33.40
2023-02-08T06:39:41.440Z,33.30
2023-02-08T06:42:36.021Z,32.80
2023-02-08T06:45:30.377Z,33.60
2023-02-08T06:48:24.705Z,32.50
2023-02-08T06:51:18.927Z,31.30
2023-02-08T06:54:13.423Z,31.50
2023-02-08T06:57:09.635Z,32.30
2023-02-08T07:00:04.140Z,31.20
2023-02-08T07:02:58.573Z,31.90
2023-02-08T07:06:05.173Z,32.30
2023-02-08T07:08:59.785Z,32.10
2023-02-08T07:11:54.096Z,31.40
2023-02-08T07:14:48.548Z,32.10
2023-02-08T07:17:42.921Z,31.90
2023-02-08T07:20:37.229Z,31.80
2023-02-08T07:23:31.568Z,31.70
2023-02-08T07:26:25.982Z,31.00
2023-02-08T07:29:20.285Z,31.90
2023-02-08T07:32:14.836Z,30.60
2023-02-08T07:35:09.892Z,31.40
2023-02-08T07:38:09.105Z,32.10
2023-02-08T07:41:05.259Z,32.10
2023-02-08T07:44:02.325Z,31.80
2023-02-08T07:46:56.531Z,31.70
2023-02-08T07:49:50.710Z,31.70
2023-02-08T07:52:50.182Z,32.00
2023-02-08T07:55:46.435Z,31.90
2023-02-08T07:58:40.831Z,31.30
2023-02-08T08:01:35.242Z,31.30
2023-02-08T08:04:29.566Z,30.50
2023-02-08T08:07:23.864Z,30.60
2023-02-08T08:10:23.545Z,31.00
2023-02-08T08:13:17.800Z,31.50
2023-02-08T08:16:12.230Z,32.30
2023-02-08T08:19:06.784Z,31.10
2023-02-08T08:22:03.550Z,31.10
2023-02-08T08:24:57.284Z,31.20
2023-02-08T08:27:51.630Z,30.40
2023-02-08T08:30:47.297Z,30.50
2023-02-08T08:33:41.958Z,30.50
2023-02-08T08:36:38.008Z,31.40
2023-02-08T08:39:33.410Z,31.40
2023-02-08T08:42:27.927Z,31.10
2023-02-08T08:45:22.224Z,30.50
2023-02-08T08:48:16.521Z,30.10
2023-02-08T08:51:11.128Z,30.70
2023-02-08T08:54:06.690Z,31.20
2023-02-08T08:57:00.999Z,31.30
2023-02-08T08:59:55.338Z,30.00
2023-02-08T09:02:49.581Z,30.70
2023-02-08T09:05:43.957Z,29.90
2023-02-08T09:08:40.584Z,29.40
2023-02-08T09:11:35.068Z,29.90
2023-02-08T09:14:29.579Z,29.90
2023-02-08T09:17:23.842Z,30.30
2023-02-08T09:20:18.463Z,30.70
2023-02-08T09:23:15.677Z,31.10
2023-02-08T09:26:13.314Z,31.80
2023-02-08T09:29:08.065Z,31.70
2023-02-08T09:32:02.419Z,32.20
2023-02-08T09:34:58.996Z,32.60
2023-02-08T09:37:56.992Z,32.50
2023-02-08T09:41:15.698Z,31.80
2023-02-08T09:44:40.716Z,32.10
2023-02-08T09:47:41.821Z,32.50
2023-02-08T09:50:39.068Z,32.70
2023-02-08T09:53:45.358Z,32.00
2023-02-08T09:56:43.683Z,31.80
2023-02-08T09:59:40.709Z,31.90
2023-02-08T10:02:36.505Z,31.80
2023-02-08T10:05:32.892Z,31.80
2023-02-08T10:08:35.347Z,32.00
2023-02-08T10:11:54.277Z,32.40
2023-02-08T10:15:09.494Z,32.70
2023-02-08T10:18:45.857Z,32.70
2023-02-08T10:22:13.209Z,32.60
2023-02-08T10:25:16.252Z,32.50
2023-02-08T10:28:44.512Z,32.70
2023-02-08T10:32:04.663Z,32.30
2023-02-08T10:35:29.113Z,33.10
2023-02-08T10:38:29.719Z,33.50
2023-02-08T10:41:43.308Z,33.90
2023-02-08T10:45:22.543Z,34.20
2023-02-08T10:48:37.684Z,34.20
2023-02-08T10:51:38.321Z,33.80
2023-02-08T10:54:42.019Z,35.20
2023-02-08T10:57:53.586Z,34.00
2023-02-08T11:01:09.015Z,34.10
2023-02-08T11:04:16.773Z,34.50
2023-02-08T11:07:29.476Z,34.40
2023-02-08T11:10:30.557Z,34.10
2023-02-08T11:13:37.321Z,34.10
2023-02-08T11:16:32.064Z,33.90
2023-02-08T11:19:58.467Z,33.70
2023-02-08T11:22:53.254Z,33.20
2023-02-08T11:25:48.688Z,33.60
2023-02-08T11:28:46.351Z,33.00
2023-02-08T11:31:44.693Z,33.10
2023-02-08T11:34:45.143Z,32.80
2023-02-08T11:38:07.968Z,33.10
2023-02-08T11:41:17.279Z,33.10
2023-02-08T11:44:23.351Z,33.30
2023-02-08T11:47:26.849Z,33.20
2023-02-08T11:50:38.092Z,33.50
2023-02-08T11:53:47.950Z,33.60
2023-02-08T11:56:44.839Z,33.20
2023-02-08T11:59:39.128Z,33.10
2023-02-08T12:02:43.740Z,32.90
2023-02-08T12:06:07.021Z,32.70
2023-02-08T12:09:19.825Z,32.40
2023-02-08T12:12:41.534Z,32.10
2023-02-08T12:15:58.754Z,32.00
2023-02-08T12:19:02.489Z,31.80
2023-02-08T12:22:25.358Z,30.80
2023-02-08T12:25:41.732Z,31.30
2023-02-08T12:28:45.340Z,30.00
2023-02-08T12:31:57.910Z,30.50
2023-02-08T12:35:33.220Z,29.80
2023-02-08T12:39:18.365Z,28.30
2023-02-08T12:43:04.408Z,29.00
2023-02-08T12:46:23.087Z,28.80
2023-02-08T12:49:42.145Z,29.20
2023-02-08T12:52:47.144Z,29.40
2023-02-08T12:55:47.161Z,29.90
2023-02-08T12:58:47.314Z,29.30
2023-02-08T13:01:57.927Z,29.80
2023-02-08T13:05:00.925Z,28.20
2023-02-08T13:08:22.561Z,28.00
2023-02-08T13:11:35.066Z,26.80
2023-02-08T13:14:35.328Z,25.80
2023-02-08T13:18:03.945Z,26.10
2023-02-08T13:20:57.746Z,26.70
2023-02-08T13:23:53.341Z,26.60
2023-02-08T13:26:47.776Z,26.30
2023-02-08T13:29:42.239Z,26.50
2023-02-08T13:32:46.560Z,26.30
2023-02-08T13:35:42.154Z,25.60
2023-02-08T13:38:38.402Z,26.30
2023-02-08T13:41:37.983Z,26.10
2023-02-08T13:44:40.171Z,25.80
2023-02-08T13:47:58.077Z,25.80
2023-02-08T13:50:58.311Z,26.20
2023-02-08T13:53:58.598Z,25.70
2023-02-08T13:56:54.866Z,25.50
2023-02-08T14:00:37.806Z,25.70
2023-02-08T14:03:36.962Z,25.30
2023-02-08T14:06:32.743Z,25.10
2023-02-08T14:09:45.396Z,25.10
2023-02-08T14:12:39.604Z,25.00
2023-02-08T14:15:39.764Z,25.10
2023-02-08T14:18:33.991Z,25.40
2023-02-08T14:21:43.087Z,25.30
2023-02-08T14:24:50.716Z,25.60
2023-02-08T14:27:50.969Z,26.50
2023-02-08T14:30:53.155Z,26.60
2023-02-08T14:33:56.299Z,27.00
2023-02-08T14:37:01.902Z,27.60
2023-02-08T14:40:25.313Z,27.90
2023-02-08T14:43:22.567Z,28.20
2023-02-08T14:46:34.671Z,28.30
2023-02-08T14:49:30.988Z,29.00
2023-02-08T14:52:27.549Z,28.70
2023-02-08T14:55:33.248Z,28.80
2023-02-08T14:58:43.875Z,28.90
2023-02-08T15:01:47.498Z,29.00
2023-02-08T15:04:46.527Z,29.00
2023-02-08T15:07:49.088Z,29.00
2023-02-08T15:10:46.098Z,29.20
2023-02-08T15:13:40.642Z,29.30
2023-02-08T15:16:55.308Z,29.30
2023-02-08T15:19:50.798Z,29.70
2023-02-08T15:22:45.056Z,29.80
2023-02-08T15:25:40.064Z,30.00
2023-02-08T15:28:37.932Z,30.10
2023-02-08T15:31:35.928Z,30.30
2023-02-08T15:34:30.363Z,30.60
2023-02-08T15:37:24.916Z,30.80
2023-02-08T15:40:28.269Z,31.00
2023-02-08T15:43:22.643Z,31.30
2023-02-08T15:46:26.163Z,31.60
2023-02-08T15:49:28.553Z,31.80
2023-02-08T15:52:26.237Z,32.10
2023-02-08T15:55:20.790Z,32.60
2023-02-08T15:58:42.455Z,32.70
2023-02-08T16:01:36.843Z,32.90
2023-02-08T16:04:31.129Z,33.00
2023-02-08T16:07:33.735Z,33.40
2023-02-08T16:10:35.473Z,33.50
2023-02-08T16:13:39.168Z,33.80
2023-02-08T16:16:46.702Z,34.20
2023-02-08T16:19:53.189Z,34.50
2023-02-08T16:22:59.934Z,34.70
2023-02-08T16:25:54.396Z,34.80
2023-02-08T16:28:55.115Z,35.00
2023-02-08T16:31:58.270Z,35.00
2023-02-08T16:34:52.590Z,35.30
2023-02-08T16:37:46.934Z,35.50
2023-02-08T16:40:50.067Z,36.00
2023-02-08T16:43:45.690Z,36.10
2023-02-08T16:46:48.788Z,35.90
2023-02-08T16:49:43.059Z,36.20
2023-02-08T16:52:37.863Z,36.20
2023-02-08T16:55:39.622Z,36.70
2023-02-08T16:58:34.007Z,37.00
2023-02-08T17:01:29.781Z,37.20
2023-02-08T17:04:27.063Z,37.40
2023-02-08T17:07:21.796Z,37.90
2023-02-08T17:10:34.344Z,37.80
2023-02-08T17:13:28.633Z,37.90
2023-02-08T17:16:25.828Z,38.20
2023-02-08T17:19:20.406Z,38.60
2023-02-08T17:22:14.942Z,38.90
2023-02-08T17:25:09.254Z,39.60
2023-02-08T17:28:07.404Z,39.40
2023-02-08T17:31:01.793Z,39.40
2023-02-08T17:33:57.019Z,39.80
2023-02-08T17:36:51.316Z,40.10
2023-02-08T17:39:45.695Z,40.20
2023-02-08T17:42:41.444Z,40.30
2023-02-08T17:45:41.104Z,40.10
2023-02-08T17:48:35.846Z,39.80
2023-02-08T17:51:30.663Z,40.20
2023-02-08T17:54:24.885Z,40.30
2023-02-08T17:57:21.000Z,40.60
2023-02-08T18:00:18.778Z,40.20
2023-02-08T18:03:13.580Z,40.10
2023-02-08T18:06:08.129Z,39.50
2023-02-08T18:09:03.247Z,39.40
2023-02-08T18:11:57.489Z,39.50
2023-02-08T18:14:51.894Z,39.80
2023-02-08T18:17:46.718Z,40.10
2023-02-08T18:20:46.554Z,40.40
2023-02-08T18:23:41.272Z,40.60
2023-02-08T18:26:36.622Z,41.00
2023-02-08T18:29:31.390Z,41.90
2023-02-08T18:32:25.946Z,42.20
2023-02-08T18:35:20.206Z,42.20
2023-02-08T18:38:14.602Z,42.10
2023-02-08T18:41:14.072Z,42.10
2023-02-08T18:44:08.575Z,42.20
2023-02-08T18:47:04.463Z,42.70
2023-02-08T18:49:59.302Z,43.30
2023-02-08T18:52:53.559Z,43.30
2023-02-08T18:55:58.445Z,43.10
2023-02-08T18:58:56.977Z,43.20
2023-02-08T19:01:51.277Z,43.10
2023-02-08T19:04:45.673Z,43.10
2023-02-08T19:07:41.324Z,43.70
2023-02-08T19:10:38.261Z,43.10
2023-02-08T19:13:33.368Z,43.10
2023-02-08T19:16:28.905Z,43.40
2023-02-08T19:19:23.315Z,43.90
2023-02-08T19:22:17.652Z,44.20
2023-02-08T19:25:12.221Z,44.20
2023-02-08T19:28:07.935Z,44.90
2023-02-08T19:31:14.083Z,44.80
2023-02-08T19:34:08.932Z,44.90
2023-02-08T19:37:03.360Z,44.60
2023-02-08T19:39:57.528Z,44.80
2023-02-08T19:42:51.809Z,45.30
2023-02-08T19:45:46.483Z,45.60
2023-02-08T19:48:41.087Z,45.70
2023-02-08T19:51:38.194Z,45.40
2023-02-08T19:54:32.567Z,44.80
2023-02-08T19:57:26.928Z,44.60
2023-02-08T20:00:24.266Z,44.50
2023-02-08T20:03:22.016Z,44.70
2023-02-08T20:06:19.183Z,45.10
2023-02-08T20:09:14.141Z,44.90
2023-02-08T20:12:08.678Z,44.80
2023-02-08T20:15:03.122Z,45.00
2023-02-08T20:17:58.990Z,45.10
2023-02-08T20:21:02.431Z,45.10
2023-02-08T20:23:56.825Z,45.10
2023-02-08T20:26:51.594Z,45.10
2023-02-08T20:29:46.032Z,45.20
2023-02-08T20:32:41.331Z,45.50
2023-02-08T20:35:38.608Z,45.80
2023-02-08T20:38:32.322Z,46.00
2023-02-08T20:41:29.237Z,46.40
2023-02-08T20:44:24.423Z,46.80
2023-02-08T20:47:23.019Z,47.10
2023-02-08T20:50:19.665Z,47.10
2023-02-08T20:53:16.082Z,47.10
2023-02-08T20:56:12.792Z,47.40
2023-02-08T20:59:09.683Z,47.80
2023-02-08T21:02:06.244Z,48.00
2023-02-08T21:05:00.699Z,48.10
2023-02-08T21:07:54.982Z,48.20
2023-02-08T21:10:49.283Z,48.40
2023-02-08T21:13:43.520Z,48.10
2023-02-08T21:16:37.800Z,48.10
2023-02-08T21:19:32.799Z,48.00
2023-02-08T21:22:27.708Z,48.00
2023-02-08T21:25:21.916Z,47.90
2023-02-08T21:28:16.396Z,47.80
2023-02-08T21:31:15.776Z,47.70
2023-02-08T21:34:10.303Z,47.60
2023-02-08T21:37:04.487Z,47.60
2023-02-08T21:39:58.707Z,47.60
2023-02-08T21:42:52.867Z,48.00
2023-02-08T21:45:47.185Z,48.40
2023-02-08T21:48:59.939Z,48.30
2023-02-08T21:52:12.407Z,48.30
2023-02-08T21:55:06.785Z,47.70
2023-02-08T21:58:01.111Z,47.40
2023-02-08T22:00:55.504Z,47.00
2023-02-08T22:03:49.888Z,46.50
2023-02-08T22:06:44.124Z,46.30
2023-02-08T22:09:39.730Z,47.10
2023-02-08T22:12:33.980Z,47.40
2023-02-08T22:15:31.139Z,47.40
2023-02-08T22:18:25.368Z,47.40
2023-02-08T22:21:19.653Z,46.70
2023-02-08T22:24:13.973Z,46.50
2023-02-08T22:27:11.480Z,45.90
2023-02-08T22:30:06.104Z,43.50
2023-02-08T22:33:00.476Z,43.20
2023-02-08T22:35:56.447Z,43.10
2023-02-08T22:38:50.741Z,43.20
2023-02-08T22:41:44.942Z,43.40
2023-02-08T22:44:40.243Z,42.40
2023-02-08T22:47:36.279Z,41.90
2023-02-08T22:50:30.564Z,41.80
2023-02-08T22:53:25.054Z,41.60
2023-02-08T22:56:20.262Z,42.60
2023-02-08T22:59:14.540Z,43.00
2023-02-08T23:02:09.139Z,42.30
2023-02-08T23:05:03.456Z,42.00
2023-02-08T23:07:57.843Z,41.30
2023-02-08T23:10:59.123Z,41.00
2023-02-08T23:13:53.560Z,40.60
2023-02-08T23:16:48.051Z,40.10
2023-02-08T23:19:43.210Z,39.00
2023-02-08T23:22:40.185Z,39.50
2023-02-08T23:25:34.435Z,37.30
2023-02-08T23:28:28.835Z,34.00
2023-02-08T23:31:24.026Z,36.00
2023-02-08T23:34:18.689Z,35.00
2023-02-08T23:37:12.986Z,34.20
2023-02-08T23:40:08.165Z,33.20
2023-02-08T23:43:02.458Z,32.70
2023-02-08T23:45:56.747Z,32.90
2023-02-08T23:48:51.414Z,31.90
2023-02-08T23:51:45.744Z,32.50
2023-02-08T23:54:40.834Z,33.00
2023-02-08T23:57:39.728Z,31.60
